createdAt,value
2022-09-20T00:04:04.436Z,100.00
2022-09-20T00:09:06.019Z,100.00
2022-09-20T00:14:08.297Z,100.00
2022-09-20T00:19:20.284Z,100.00
2022-09-20T00:24:21.812Z,100.00
2022-09-20T00:29:23.343Z,100.00
2022-09-20T00:34:24.981Z,100.00
2022-09-20T00:39:26.597Z,100.00
2022-09-20T00:44:57.306Z,100.00
2022-09-20T00:50:05.749Z,100.00
2022-09-20T00:55:08.468Z,100.00
2022-09-20T01:00:11.698Z,100.00
2022-09-20T01:05:15.686Z,100.00
2022-09-20T01:10:17.643Z,100.00
2022-09-20T01:15:20.621Z,100.00
2022-09-20T01:20:31.593Z,100.00
2022-09-20T01:26:01.909Z,100.00
2022-09-20T01:31:23.183Z,100.00
2022-09-20T01:36:31.336Z,100.00
2022-09-20T01:41:45.629Z,100.00
2022-09-20T01:46:53.553Z,100.00
2022-09-20T01:52:10.097Z,100.00
2022-09-20T01:57:42.251Z,100.00
2022-09-20T02:02:52.816Z,100.00
2022-09-20T02:08:11.113Z,100.00
2022-09-20T02:13:32.176Z,100.00
2022-09-20T02:18:36.476Z,100.00
2022-09-20T02:24:05.945Z,100.00
2022-09-20T02:29:13.267Z,100.00
2022-09-20T02:34:48.649Z,100.00
2022-09-20T02:39:59.174Z,100.00
2022-09-20T02:45:15.481Z,100.00
2022-09-20T02:50:45.365Z,100.00
2022-09-20T02:56:17.369Z,100.00
2022-09-20T03:01:24.730Z,100.00
2022-09-20T03:06:47.213Z,100.00
2022-09-20T03:12:14.394Z,100.00
2022-09-20T03:17:15.801Z,100.00
2022-09-20T03:22:55.922Z,100.00
2022-09-20T03:28:25.217Z,100.00
2022-09-20T03:33:32.378Z,100.00
2022-09-20T03:38:43.015Z,100.00
2022-09-20T03:43:56.555Z,100.00
2022-09-20T03:49:19.887Z,100.00
2022-09-20T03:54:48.959Z,100.00
2022-09-20T04:00:07.148Z,100.00
2022-09-20T04:05:18.288Z,100.00
2022-09-20T04:10:28.632Z,100.00
2022-09-20T04:15:31.157Z,100.00
2022-09-20T04:20:56.304Z,100.00
2022-09-20T04:26:01.320Z,100.00
2022-09-20T04:31:16.334Z,100.00
2022-09-20T04:36:36.981Z,100.00
2022-09-20T04:41:47.724Z,100.00
2022-09-20T04:47:20.471Z,100.00
2022-09-20T04:52:33.869Z,100.00
2022-09-20T04:58:29.931Z,100.00
2022-09-20T05:03:59.231Z,100.00
2022-09-20T05:09:12.995Z,100.00
2022-09-20T05:14:36.444Z,100.00
2022-09-20T05:19:47.063Z,100.00
2022-09-20T05:24:54.611Z,100.00
2022-09-20T05:30:33.090Z,100.00
2022-09-20T05:35:43.786Z,100.00
2022-09-20T05:41:08.267Z,100.00
2022-09-20T05:46:27.773Z,100.00
2022-09-20T05:51:41.297Z,100.00
2022-09-20T05:57:13.506Z,100.00
2022-09-20T06:02:27.968Z,100.00
2022-09-20T06:07:35.383Z,100.00
2022-09-20T06:13:03.993Z,100.00
2022-09-20T06:18:11.564Z,100.00
2022-09-20T06:23:13.350Z,100.00
2022-09-20T06:28:24.051Z,100.00
2022-09-20T06:33:28.332Z,100.00
2022-09-20T06:38:46.193Z,100.00
2022-09-20T06:43:47.739Z,100.00
2022-09-20T06:48:49.235Z,100.00
2022-09-20T06:53:51.487Z,100.00
2022-09-20T06:58:53.267Z,100.00
2022-09-20T07:03:54.861Z,100.00
2022-09-20T07:08:56.394Z,100.00
2022-09-20T07:13:57.967Z,100.00
2022-09-20T07:18:59.601Z,100.00
2022-09-20T07:24:01.385Z,100.00
2022-09-20T07:29:02.901Z,95.70
2022-09-20T07:34:04.485Z,97.21
2022-09-20T07:39:06.051Z,97.05
2022-09-20T07:44:07.624Z,92.77
2022-09-20T07:49:09.148Z,96.20
2022-09-20T07:54:10.675Z,88.82
2022-09-20T07:59:13.111Z,88.51
2022-09-20T08:04:14.625Z,86.72
2022-09-20T08:09:16.272Z,87.86
2022-09-20T08:14:18.338Z,87.07
2022-09-20T08:19:22.075Z,80.01
2022-09-20T08:24:23.781Z,81.63
2022-09-20T08:29:25.700Z,80.92
2022-09-20T08:34:27.475Z,79.49
2022-09-20T08:45:34.936Z,77.94
2022-09-20T08:50:37.254Z,81.28
2022-09-20T08:55:40.384Z,75.05
2022-09-20T09:00:45.608Z,75.22
2022-09-20T09:05:49.835Z,79.70
2022-09-20T09:11:01.862Z,73.63
2022-09-20T09:16:13.997Z,71.76
2022-09-20T09:21:28.471Z,72.68
2022-09-20T09:26:37.582Z,74.93
2022-09-20T09:31:39.144Z,76.01
2022-09-20T09:36:44.246Z,78.25
2022-09-20T09:41:45.795Z,78.76
2022-09-20T09:46:47.486Z,76.57
2022-09-20T09:52:13.750Z,74.90
2022-09-20T09:57:34.824Z,73.25
2022-09-20T10:03:04.419Z,72.18
2022-09-20T10:08:24.698Z,72.48
2022-09-20T10:13:55.168Z,74.65
2022-09-20T10:19:15.096Z,76.41
2022-09-20T10:24:27.039Z,75.94
2022-09-20T10:29:56.688Z,79.02
2022-09-20T10:35:25.717Z,80.86
2022-09-20T10:40:38.842Z,81.13
2022-09-20T10:46:27.581Z,81.50
2022-09-20T10:51:33.615Z,82.13
2022-09-20T10:56:43.140Z,78.60
2022-09-20T11:01:47.723Z,73.39
2022-09-20T11:07:26.238Z,71.62
2022-09-20T11:12:27.912Z,70.86
2022-09-20T11:17:36.075Z,68.36
2022-09-20T11:22:43.655Z,66.72
2022-09-20T11:28:01.424Z,70.69
2022-09-20T11:33:15.002Z,70.88
2022-09-20T11:38:27.645Z,70.18
2022-09-20T11:43:30.263Z,71.83
2022-09-20T11:49:10.925Z,72.53
2022-09-20T11:54:37.372Z,74.89
2022-09-20T11:59:48.818Z,76.58
2022-09-20T12:10:05.852Z,82.71
2022-09-20T12:15:31.887Z,90.40
2022-09-20T12:20:33.365Z,97.27
2022-09-20T12:25:39.119Z,95.57
2022-09-20T12:30:40.670Z,95.15
2022-09-20T12:35:58.975Z,88.31
2022-09-20T12:41:13.748Z,83.63
2022-09-20T12:46:26.679Z,81.91
2022-09-20T12:51:33.048Z,77.10
2022-09-20T12:56:41.362Z,76.03
2022-09-20T13:01:42.878Z,75.57
2022-09-20T13:06:44.454Z,67.49
2022-09-20T13:11:56.667Z,61.86
2022-09-20T13:17:19.207Z,57.69
2022-09-20T13:22:26.485Z,55.87
2022-09-20T13:27:49.991Z,54.36
2022-09-20T13:32:53.154Z,57.60
2022-09-20T13:38:01.762Z,63.33
2022-09-20T13:43:23.987Z,68.77
2022-09-20T13:48:30.200Z,70.30
2022-09-20T13:53:47.102Z,72.35
2022-09-20T13:58:50.172Z,67.87
2022-09-20T14:03:53.078Z,68.52
2022-09-20T14:08:56.197Z,70.12
2022-09-20T14:14:04.924Z,72.06
2022-09-20T14:19:08.214Z,70.47
2022-09-20T14:24:16.173Z,72.30
2022-09-20T14:29:39.001Z,70.42
2022-09-20T14:34:41.454Z,71.10
2022-09-20T14:39:53.950Z,73.51
2022-09-20T14:44:55.719Z,72.60
2022-09-20T14:49:58.407Z,69.87
2022-09-20T14:55:19.176Z,67.59
2022-09-20T15:00:20.830Z,64.79
2022-09-20T15:05:27.250Z,65.14
2022-09-20T15:10:28.803Z,65.55
2022-09-20T15:15:30.315Z,64.03
2022-09-20T15:20:32.067Z,62.22
2022-09-20T15:25:33.700Z,60.34
2022-09-20T15:30:35.992Z,62.48
2022-09-20T15:35:41.859Z,62.08
2022-09-20T15:40:44.470Z,62.90
2022-09-20T15:45:51.800Z,64.18
2022-09-20T15:51:08.077Z,63.67
2022-09-20T15:56:22.865Z,67.00
2022-09-20T16:01:29.467Z,66.59
2022-09-20T16:06:31.891Z,66.45
2022-09-20T16:11:34.168Z,69.30
2022-09-20T16:16:40.079Z,69.50
2022-09-20T16:21:44.360Z,71.17
2022-09-20T16:26:45.861Z,69.03
2022-09-20T16:31:49.372Z,69.67
2022-09-20T16:36:52.992Z,71.25
2022-09-20T16:42:02.985Z,69.67
2022-09-20T16:47:06.500Z,67.06
2022-09-20T16:52:09.117Z,68.33
2022-09-20T16:57:10.658Z,69.60
2022-09-20T17:02:12.279Z,69.16
2022-09-20T17:07:13.799Z,69.45
2022-09-20T17:12:15.335Z,70.75
2022-09-20T17:17:16.813Z,70.33
2022-09-20T17:22:18.331Z,70.96
2022-09-20T17:27:19.795Z,71.88
2022-09-20T17:32:21.292Z,73.36
2022-09-20T17:37:22.854Z,75.98
2022-09-20T17:42:24.375Z,77.26
2022-09-20T17:47:25.908Z,79.72
2022-09-20T17:52:27.392Z,80.04
2022-09-20T17:57:28.907Z,82.34
2022-09-20T18:02:30.695Z,83.32
2022-09-20T18:07:32.219Z,84.99
2022-09-20T18:12:33.717Z,86.96
2022-09-20T18:17:35.207Z,86.72
2022-09-20T18:22:36.764Z,89.37
2022-09-20T18:27:38.253Z,89.42
2022-09-20T18:32:39.780Z,91.48
2022-09-20T18:37:41.272Z,93.55
2022-09-20T18:42:42.751Z,94.63
2022-09-20T18:47:44.232Z,97.09
2022-09-20T18:52:45.793Z,100.00
2022-09-20T18:57:47.504Z,100.00
2022-09-20T19:03:10.119Z,100.00
2022-09-20T19:08:31.597Z,100.00
2022-09-20T19:13:51.347Z,100.00
2022-09-20T19:19:11.612Z,100.00
2022-09-20T19:24:28.373Z,100.00
2022-09-20T19:29:30.241Z,100.00
2022-09-20T19:34:33.109Z,100.00
2022-09-20T19:39:49.435Z,100.00
2022-09-20T19:45:02.685Z,100.00
2022-09-20T19:50:15.575Z,100.00
2022-09-20T19:55:17.553Z,100.00
2022-09-20T20:00:21.048Z,100.00
2022-09-20T20:05:23.525Z,100.00
2022-09-20T20:10:37.800Z,100.00
2022-09-20T20:15:46.577Z,100.00
2022-09-20T20:20:50.061Z,100.00
2022-09-20T20:26:05.560Z,100.00
2022-09-20T20:31:07.115Z,100.00
2022-09-20T20:36:09.533Z,100.00
2022-09-20T20:41:13.863Z,100.00
2022-09-20T20:46:17.691Z,100.00
2022-09-20T20:51:21.638Z,100.00
2022-09-20T20:56:28.640Z,100.00
2022-09-20T21:01:32.506Z,100.00
2022-09-20T21:06:35.851Z,100.00
2022-09-20T21:11:40.075Z,100.00
2022-09-20T21:16:43.363Z,100.00
2022-09-20T21:21:46.691Z,100.00
2022-09-20T21:26:48.201Z,100.00
2022-09-20T21:31:49.693Z,100.00
2022-09-20T21:36:51.169Z,100.00
2022-09-20T21:41:52.668Z,100.00
2022-09-20T21:46:54.174Z,100.00
2022-09-20T21:51:55.676Z,100.00
2022-09-20T21:56:57.200Z,100.00
2022-09-20T22:01:58.876Z,100.00
2022-09-20T22:07:00.536Z,100.00
2022-09-20T22:12:02.235Z,100.00
2022-09-20T22:17:03.760Z,100.00
2022-09-20T22:22:05.289Z,100.00
2022-09-20T22:27:06.815Z,100.00
2022-09-20T22:32:20.345Z,100.00
2022-09-20T22:37:21.866Z,100.00
2022-09-20T22:42:23.433Z,100.00
2022-09-20T22:47:25.306Z,100.00
2022-09-20T22:52:26.793Z,100.00
2022-09-20T23:04:05.489Z,100.00
2022-09-20T23:09:10.552Z,100.00
2022-09-20T23:14:14.994Z,100.00
2022-09-20T23:19:17.009Z,100.00
2022-09-20T23:24:31.522Z,100.00
2022-09-20T23:29:33.024Z,100.00
2022-09-20T23:34:34.563Z,100.00
2022-09-20T23:39:53.640Z,100.00
2022-09-20T23:44:55.364Z,100.00
2022-09-20T23:49:56.870Z,100.00
2022-09-20T23:55:39.595Z,100.00
